createdAt,value
2018-09-24T00:01:48.057Z,11.27
2018-09-24T00:04:16.613Z,11.19
2018-09-24T00:06:45.154Z,11.14
2018-09-24T00:09:13.725Z,11.12
2018-09-24T00:11:42.299Z,10.96
2018-09-24T00:14:10.925Z,10.95
2018-09-24T00:16:39.472Z,11.00
2018-09-24T00:19:08.302Z,10.95
2018-09-24T00:21:36.866Z,10.83
2018-09-24T00:24:05.438Z,10.81
2018-09-24T00:26:34.004Z,10.89
2018-09-24T00:29:02.575Z,10.76
2018-09-24T00:31:31.119Z,10.81
2018-09-24T00:33:59.710Z,10.59
2018-09-24T00:36:28.268Z,10.49
2018-09-24T00:38:56.852Z,10.49
2018-09-24T00:41:25.409Z,10.51
2018-09-24T00:43:53.995Z,10.53
2018-09-24T00:46:22.525Z,10.59
2018-09-24T00:48:51.109Z,10.64
2018-09-24T00:51:19.661Z,10.74
2018-09-24T00:53:48.252Z,10.78
2018-09-24T00:56:16.802Z,10.89
2018-09-24T00:58:45.372Z,10.86
2018-09-24T01:01:13.928Z,10.77
2018-09-24T01:03:42.546Z,10.73
2018-09-24T01:06:11.094Z,10.63
2018-09-24T01:08:39.657Z,10.54
2018-09-24T01:11:08.204Z,10.49
2018-09-24T01:13:36.780Z,10.42
2018-09-24T01:16:05.356Z,10.41
2018-09-24T01:18:33.942Z,10.45
2018-09-24T01:21:02.488Z,10.44
2018-09-24T01:23:31.096Z,10.40
2018-09-24T01:25:59.731Z,10.39
2018-09-24T01:28:28.317Z,10.40
2018-09-24T01:30:56.865Z,10.21
2018-09-24T01:33:25.461Z,10.18
2018-09-24T01:35:53.976Z,10.12
2018-09-24T01:38:22.601Z,10.17
2018-09-24T01:40:51.152Z,10.11
2018-09-24T01:43:19.716Z,9.96
2018-09-24T01:45:48.290Z,9.86
2018-09-24T01:48:16.843Z,9.70
2018-09-24T01:50:45.424Z,9.70
2018-09-24T01:53:13.978Z,9.66
2018-09-24T01:55:43.262Z,9.62
2018-09-24T01:58:11.789Z,9.58
2018-09-24T02:00:40.373Z,9.55
2018-09-24T02:03:08.930Z,9.62
2018-09-24T02:05:37.510Z,9.60
2018-09-24T02:08:06.098Z,9.55
2018-09-24T02:10:34.668Z,9.57
2018-09-24T02:13:03.220Z,9.52
2018-09-24T02:15:33.065Z,9.50
2018-09-24T02:18:01.916Z,9.53
2018-09-24T02:20:30.508Z,9.46
2018-09-24T02:22:59.069Z,9.45
2018-09-24T02:25:27.689Z,9.44
2018-09-24T02:27:56.215Z,9.44
2018-09-24T02:30:24.809Z,9.41
2018-09-24T02:32:53.358Z,9.48
2018-09-24T02:35:21.990Z,9.37
2018-09-24T02:37:50.525Z,9.25
2018-09-24T02:40:22.905Z,9.33
2018-09-24T02:42:51.744Z,9.32
2018-09-24T02:45:20.776Z,9.41
2018-09-24T02:47:49.339Z,9.43
2018-09-24T02:50:17.916Z,9.47
2018-09-24T02:52:46.461Z,9.46
2018-09-24T02:55:17.772Z,9.46
2018-09-24T02:57:46.408Z,9.43
2018-09-24T03:00:20.056Z,9.39
2018-09-24T03:02:48.645Z,9.28
2018-09-24T03:05:17.237Z,9.20
2018-09-24T03:07:45.793Z,9.11
2018-09-24T03:10:14.382Z,9.06
2018-09-24T03:12:48.463Z,8.98
2018-09-24T03:15:17.054Z,8.94
2018-09-24T03:17:45.664Z,8.95
2018-09-24T03:20:14.316Z,8.98
2018-09-24T03:22:42.893Z,8.96
2018-09-24T03:25:17.261Z,8.98
2018-09-24T03:27:46.144Z,8.95
2018-09-24T03:30:14.834Z,8.97
2018-09-24T03:32:43.468Z,8.89
2018-09-24T03:35:12.069Z,8.84
2018-09-24T03:37:40.726Z,8.89
2018-09-24T03:40:09.317Z,8.95
2018-09-24T03:42:37.871Z,8.93
2018-09-24T03:45:06.529Z,8.95
2018-09-24T03:47:35.069Z,8.94
2018-09-24T03:50:03.688Z,8.86
2018-09-24T03:52:32.241Z,8.88
2018-09-24T03:55:00.789Z,8.95
2018-09-24T03:57:29.362Z,8.97
2018-09-24T03:59:57.897Z,9.00
2018-09-24T04:02:26.450Z,9.04
2018-09-24T04:05:00.148Z,8.95
2018-09-24T04:07:34.060Z,8.96
2018-09-24T04:10:07.884Z,8.94
2018-09-24T04:12:41.676Z,8.86
2018-09-24T04:15:15.578Z,8.82
2018-09-24T04:17:49.477Z,8.83
2018-09-24T04:20:23.324Z,8.81
2018-09-24T04:22:57.013Z,8.77
2018-09-24T04:25:30.858Z,8.75
2018-09-24T04:28:04.561Z,8.71
2018-09-24T04:30:38.489Z,8.69
2018-09-24T04:33:12.337Z,8.57
2018-09-24T04:35:46.202Z,8.58
2018-09-24T04:38:20.097Z,8.54
2018-09-24T04:40:53.952Z,8.47
2018-09-24T04:43:27.868Z,8.46
2018-09-24T04:46:01.698Z,8.43
2018-09-24T04:48:35.409Z,8.45
2018-09-24T04:51:09.187Z,8.40
2018-09-24T04:53:42.912Z,8.24
2018-09-24T04:56:16.693Z,8.26
2018-09-24T04:58:50.608Z,8.20
2018-09-24T05:01:24.400Z,8.22
2018-09-24T05:03:58.309Z,8.28
2018-09-24T05:06:32.100Z,8.23
2018-09-24T05:09:05.776Z,8.29
2018-09-24T05:11:39.632Z,8.23
2018-09-24T05:14:13.533Z,8.22
2018-09-24T05:16:47.344Z,8.22
2018-09-24T05:19:21.342Z,8.22
2018-09-24T05:21:55.178Z,8.27
2018-09-24T05:24:28.840Z,8.25
2018-09-24T05:27:02.652Z,8.28
2018-09-24T05:29:36.325Z,8.43
2018-09-24T05:32:10.177Z,8.43
2018-09-24T05:34:44.856Z,8.48
2018-09-24T05:37:18.664Z,8.50
2018-09-24T05:39:52.518Z,8.51
2018-09-24T05:42:26.218Z,8.48
2018-09-24T05:45:00.001Z,8.51
2018-09-24T05:47:33.824Z,8.55
2018-09-24T05:50:08.319Z,8.58
2018-09-24T05:52:42.327Z,8.58
2018-09-24T05:55:16.236Z,8.52
2018-09-24T05:57:50.136Z,8.49
2018-09-24T06:00:24.117Z,8.57
2018-09-24T06:02:58.416Z,8.64
2018-09-24T06:05:32.693Z,8.75
2018-09-24T06:08:06.575Z,8.74
2018-09-24T06:10:40.490Z,8.80
2018-09-24T06:13:14.414Z,8.94
2018-09-24T06:15:48.288Z,8.99
2018-09-24T06:18:22.104Z,9.16
2018-09-24T06:20:55.917Z,9.32
2018-09-24T06:23:29.797Z,9.52
2018-09-24T06:26:03.702Z,9.66
2018-09-24T06:28:37.549Z,9.95
2018-09-24T06:31:11.465Z,10.63
2018-09-24T06:33:45.460Z,11.91
2018-09-24T06:36:19.350Z,13.70
2018-09-24T06:38:53.177Z,14.53
2018-09-24T06:41:27.007Z,15.93
2018-09-24T06:44:00.881Z,16.35
2018-09-24T06:46:34.757Z,16.49
2018-09-24T06:49:08.815Z,17.03
2018-09-24T06:51:42.667Z,17.06
2018-09-24T06:54:16.481Z,18.61
2018-09-24T06:56:50.213Z,18.62
2018-09-24T06:59:24.020Z,18.62
2018-09-24T07:01:57.824Z,17.99
2018-09-24T07:04:32.126Z,17.07
2018-09-24T07:07:05.973Z,17.19
2018-09-24T07:09:39.890Z,19.74
2018-09-24T07:12:13.647Z,20.54
2018-09-24T07:14:47.596Z,22.00
2018-09-24T07:17:21.308Z,20.96
2018-09-24T07:19:55.027Z,21.36
2018-09-24T07:22:28.870Z,22.07
2018-09-24T07:25:02.662Z,22.18
2018-09-24T07:27:36.464Z,21.60
2018-09-24T07:30:10.426Z,21.03
2018-09-24T07:32:44.186Z,20.34
2018-09-24T07:35:17.933Z,21.03
2018-09-24T07:37:51.826Z,22.05
2018-09-24T07:40:25.873Z,20.81
2018-09-24T07:42:59.692Z,20.20
2018-09-24T07:45:33.482Z,18.72
2018-09-24T07:48:07.362Z,21.31
2018-09-24T07:50:41.726Z,21.97
2018-09-24T07:53:15.561Z,19.71
2018-09-24T07:55:49.489Z,15.87
2018-09-24T07:58:23.701Z,14.47
2018-09-24T08:00:57.722Z,13.69
2018-09-24T08:03:32.184Z,13.23
2018-09-24T08:06:19.971Z,12.68
2018-09-24T08:09:11.139Z,12.72
2018-09-24T08:11:46.628Z,12.44
2018-09-24T08:14:41.327Z,12.31
2018-09-24T08:17:29.355Z,12.01
2018-09-24T08:20:04.544Z,11.95
2018-09-24T08:22:39.459Z,11.43
2018-09-24T08:25:14.211Z,11.42
2018-09-24T08:27:49.805Z,11.54
2018-09-24T08:30:24.208Z,11.43
2018-09-24T08:32:58.795Z,11.35
2018-09-24T08:35:32.909Z,11.41
2018-09-24T08:38:06.929Z,11.63
2018-09-24T08:40:40.636Z,11.56
2018-09-24T08:43:15.760Z,11.45
2018-09-24T08:45:50.461Z,11.40
2018-09-24T08:48:24.264Z,11.45
2018-09-24T08:50:58.177Z,11.52
2018-09-24T08:53:32.201Z,11.66
2018-09-24T08:56:06.084Z,12.17
2018-09-24T08:58:39.801Z,15.35
2018-09-24T09:01:13.705Z,16.27
2018-09-24T09:03:47.620Z,16.91
2018-09-24T09:06:28.577Z,17.33
2018-09-24T09:09:02.256Z,16.95
2018-09-24T09:11:36.064Z,15.18
2018-09-24T09:14:09.924Z,14.36
2018-09-24T09:16:43.692Z,13.94
2018-09-24T09:19:17.408Z,14.41
2018-09-24T09:21:51.302Z,15.64
2018-09-24T09:24:25.136Z,17.59
2018-09-24T09:26:58.977Z,18.27
2018-09-24T09:29:32.967Z,17.11
2018-09-24T09:32:06.801Z,16.75
2018-09-24T09:34:40.697Z,15.87
2018-09-24T09:37:14.483Z,14.91
2018-09-24T09:39:48.260Z,14.14
2018-09-24T09:42:22.028Z,13.07
2018-09-24T09:44:55.855Z,13.13
2018-09-24T09:47:29.841Z,13.25
2018-09-24T09:50:03.709Z,13.31
2018-09-24T09:52:37.570Z,13.10
2018-09-24T09:55:11.377Z,13.49
2018-09-24T09:57:45.174Z,13.83
2018-09-24T10:00:19.037Z,13.47
2018-09-24T10:02:52.580Z,13.39
2018-09-24T10:05:26.365Z,14.44
2018-09-24T10:08:00.078Z,15.90
2018-09-24T10:10:33.858Z,17.88
2018-09-24T10:13:07.557Z,19.82
2018-09-24T10:15:41.509Z,20.45
2018-09-24T10:18:15.312Z,19.49
2018-09-24T10:20:49.159Z,18.14
2018-09-24T10:23:22.960Z,20.06
2018-09-24T10:25:56.827Z,21.50
2018-09-24T10:28:30.672Z,20.02
2018-09-24T10:31:04.399Z,21.55
2018-09-24T10:33:38.449Z,21.90
2018-09-24T10:36:12.393Z,22.40
2018-09-24T10:38:46.180Z,24.15
2018-09-24T10:41:20.033Z,21.89
2018-09-24T10:43:53.713Z,19.81
2018-09-24T10:46:27.483Z,20.52
2018-09-24T10:49:01.331Z,20.79
2018-09-24T10:51:35.224Z,21.50
2018-09-24T10:54:08.900Z,22.02
2018-09-24T10:56:42.777Z,22.22
2018-09-24T10:59:16.821Z,20.57
2018-09-24T11:01:50.572Z,20.67
2018-09-24T11:04:24.357Z,22.00
2018-09-24T11:06:58.110Z,22.65
2018-09-24T11:09:31.869Z,22.81
2018-09-24T11:12:05.668Z,21.86
2018-09-24T11:14:39.618Z,19.62
2018-09-24T11:17:13.678Z,17.84
2018-09-24T11:19:47.336Z,18.63
2018-09-24T11:22:21.246Z,17.86
2018-09-24T11:24:55.109Z,16.50
2018-09-24T11:27:28.949Z,17.19
2018-09-24T11:30:04.579Z,18.58
2018-09-24T11:32:39.236Z,19.17
2018-09-24T11:35:13.088Z,19.19
2018-09-24T11:37:46.957Z,19.01
2018-09-24T11:40:22.970Z,18.04
2018-09-24T11:42:56.732Z,16.55
2018-09-24T11:45:30.597Z,15.68
2018-09-24T11:48:04.583Z,15.09
2018-09-24T11:50:38.448Z,16.52
2018-09-24T11:53:12.357Z,17.21
2018-09-24T11:55:46.168Z,17.98
2018-09-24T11:58:20.297Z,18.57
2018-09-24T12:00:54.053Z,18.26
2018-09-24T12:03:28.000Z,17.86
2018-09-24T12:06:01.762Z,17.59
2018-09-24T12:08:35.605Z,16.95
2018-09-24T12:11:09.354Z,16.26
2018-09-24T12:13:43.165Z,15.41
2018-09-24T12:16:16.962Z,15.38
2018-09-24T12:18:50.774Z,14.82
2018-09-24T12:21:24.564Z,14.41
2018-09-24T12:23:58.530Z,15.44
2018-09-24T12:26:32.433Z,16.28
2018-09-24T12:29:06.274Z,16.64
2018-09-24T12:31:40.066Z,17.08
2018-09-24T12:34:13.754Z,17.43
2018-09-24T12:36:47.576Z,18.30
2018-09-24T12:39:21.609Z,18.97
2018-09-24T12:41:55.490Z,19.01
2018-09-24T12:44:29.349Z,18.87
2018-09-24T12:47:03.125Z,18.81
2018-09-24T12:49:37.034Z,18.43
2018-09-24T12:52:10.906Z,18.80
2018-09-24T12:54:44.850Z,19.13
2018-09-24T12:57:18.583Z,18.38
2018-09-24T12:59:52.456Z,18.27
2018-09-24T13:02:26.454Z,17.92
2018-09-24T13:05:00.374Z,18.22
2018-09-24T13:07:34.233Z,18.23
2018-09-24T13:10:08.197Z,18.14
2018-09-24T13:12:42.047Z,18.43
2018-09-24T13:15:15.829Z,18.27
2018-09-24T13:17:49.484Z,17.63
2018-09-24T13:20:23.452Z,17.82
2018-09-24T13:22:57.385Z,17.39
2018-09-24T13:25:31.205Z,18.05
2018-09-24T13:28:04.972Z,18.69
2018-09-24T13:30:38.772Z,18.94
2018-09-24T13:33:12.732Z,18.74
2018-09-24T13:35:46.552Z,18.04
2018-09-24T13:38:20.342Z,18.03
2018-09-24T13:40:53.964Z,18.02
2018-09-24T13:43:27.733Z,18.22
2018-09-24T13:46:01.683Z,17.99
2018-09-24T13:48:35.562Z,18.13
2018-09-24T13:51:09.633Z,18.37
2018-09-24T13:53:43.569Z,18.47
2018-09-24T13:56:17.537Z,18.28
2018-09-24T13:58:51.505Z,18.28
2018-09-24T14:01:25.462Z,18.60
2018-09-24T14:03:59.303Z,19.15
2018-09-24T14:06:34.214Z,19.32
2018-09-24T14:09:07.930Z,18.77
2018-09-24T14:11:41.674Z,19.00
2018-09-24T14:14:15.559Z,17.57
2018-09-24T14:16:50.208Z,16.54
2018-09-24T14:19:24.084Z,15.37
2018-09-24T14:21:57.856Z,15.49
2018-09-24T14:24:31.802Z,16.20
2018-09-24T14:27:07.073Z,16.87
2018-09-24T14:29:40.860Z,17.63
2018-09-24T14:32:14.804Z,17.57
2018-09-24T14:34:48.978Z,17.94
2018-09-24T14:37:26.045Z,17.75
2018-09-24T14:39:59.861Z,17.19
2018-09-24T14:42:34.057Z,16.60
2018-09-24T14:45:07.937Z,15.74
2018-09-24T14:47:42.865Z,15.48
2018-09-24T14:50:16.625Z,15.02
2018-09-24T14:52:51.621Z,14.58
2018-09-24T14:55:25.997Z,14.37
2018-09-24T14:58:00.146Z,14.11
2018-09-24T15:00:34.326Z,13.52
2018-09-24T15:03:08.503Z,13.36
2018-09-24T15:05:42.623Z,13.19
2018-09-24T15:08:16.461Z,13.50
2018-09-24T15:10:50.316Z,14.11
2018-09-24T15:13:24.188Z,15.06
2018-09-24T15:15:58.107Z,15.34
2018-09-24T15:18:31.972Z,16.19
2018-09-24T15:21:05.952Z,17.18
2018-09-24T15:23:39.762Z,17.47
2018-09-24T15:26:13.643Z,17.75
2018-09-24T15:28:47.645Z,17.82
2018-09-24T15:31:21.433Z,17.92
2018-09-24T15:33:55.248Z,17.96
2018-09-24T15:36:29.194Z,17.85
2018-09-24T15:39:03.004Z,18.02
2018-09-24T15:41:36.985Z,17.71
2018-09-24T15:44:10.848Z,17.90
2018-09-24T15:46:44.693Z,17.87
2018-09-24T15:49:18.582Z,17.35
2018-09-24T15:51:52.370Z,17.00
2018-09-24T15:54:26.327Z,17.03
2018-09-24T15:57:00.045Z,16.72
2018-09-24T15:59:33.709Z,17.03
2018-09-24T16:02:07.646Z,16.54
2018-09-24T16:04:41.356Z,16.16
2018-09-24T16:07:15.153Z,15.92
2018-09-24T16:09:48.909Z,15.52
2018-09-24T16:12:22.845Z,15.75
2018-09-24T16:14:56.677Z,15.93
2018-09-24T16:17:30.586Z,16.06
2018-09-24T16:20:04.466Z,15.95
2018-09-24T16:22:38.284Z,15.41
2018-09-24T16:25:12.030Z,15.49
2018-09-24T16:27:46.022Z,15.59
2018-09-24T16:30:21.016Z,15.41
2018-09-24T16:32:54.715Z,15.05
2018-09-24T16:35:28.930Z,14.98
2018-09-24T16:38:02.735Z,14.82
2018-09-24T16:40:36.507Z,14.73
2018-09-24T16:43:10.361Z,14.42
2018-09-24T16:45:44.065Z,14.03
2018-09-24T16:48:17.887Z,13.80
2018-09-24T16:50:51.669Z,13.62
2018-09-24T16:53:25.465Z,13.21
2018-09-24T16:55:59.348Z,12.89
2018-09-24T16:58:41.240Z,12.56
2018-09-24T17:01:15.075Z,12.33
2018-09-24T17:03:49.367Z,12.23
2018-09-24T17:06:23.730Z,12.08
2018-09-24T17:08:57.575Z,11.92
2018-09-24T17:11:32.860Z,11.75
2018-09-24T17:14:06.720Z,11.63
2018-09-24T17:16:40.656Z,11.56
2018-09-24T17:19:15.614Z,11.51
2018-09-24T17:21:49.450Z,11.44
2018-09-24T17:24:23.376Z,11.27
2018-09-24T17:27:00.713Z,11.25
2018-09-24T17:29:34.465Z,11.15
2018-09-24T17:32:09.177Z,11.02
2018-09-24T17:34:43.082Z,11.03
2018-09-24T17:37:17.298Z,10.91
2018-09-24T17:39:51.313Z,10.86
2018-09-24T17:42:25.059Z,10.89
2018-09-24T17:44:59.412Z,10.79
2018-09-24T17:47:41.548Z,10.82
2018-09-24T17:52:55.580Z,10.76
2018-09-24T17:55:29.516Z,10.72
2018-09-24T17:58:03.444Z,10.72
2018-09-24T18:00:37.297Z,10.74
2018-09-24T18:03:11.492Z,10.75
2018-09-24T18:05:46.469Z,10.85
2018-09-24T18:08:20.710Z,10.90
2018-09-24T18:10:54.807Z,10.99
2018-09-24T18:13:28.758Z,10.92
2018-09-24T18:16:08.699Z,10.80
2018-09-24T18:18:42.673Z,10.64
2018-09-24T18:21:17.141Z,10.49
2018-09-24T18:23:51.222Z,10.36
2018-09-24T18:26:25.876Z,10.36
2018-09-24T18:29:00.085Z,10.21
2018-09-24T18:31:34.010Z,10.23
2018-09-24T18:34:07.939Z,10.21
2018-09-24T18:36:41.868Z,10.06
2018-09-24T18:39:15.846Z,10.01
2018-09-24T18:41:49.657Z,9.90
2018-09-24T18:44:23.382Z,9.76
2018-09-24T18:46:57.420Z,9.74
2018-09-24T18:49:31.162Z,9.82
2018-09-24T18:52:04.935Z,9.84
2018-09-24T18:54:38.689Z,9.80
2018-09-24T18:57:12.536Z,9.67
2018-09-24T18:59:46.401Z,9.57
2018-09-24T19:02:20.167Z,9.45
2018-09-24T19:04:53.963Z,9.49
2018-09-24T19:07:27.607Z,9.54
2018-09-24T19:10:01.498Z,9.59
2018-09-24T19:12:36.992Z,9.61
2018-09-24T19:15:10.828Z,9.60
2018-09-24T19:17:44.725Z,9.55
2018-09-24T19:20:18.488Z,9.60
2018-09-24T19:22:52.245Z,9.62
2018-09-24T19:25:25.977Z,9.52
2018-09-24T19:27:59.848Z,9.52
2018-09-24T19:30:33.655Z,9.58
2018-09-24T19:33:07.357Z,9.64
2018-09-24T19:35:41.021Z,9.71
2018-09-24T19:38:14.777Z,9.84
2018-09-24T19:40:48.674Z,9.81
2018-09-24T19:43:22.508Z,9.78
2018-09-24T19:45:56.360Z,9.87
2018-09-24T19:48:30.138Z,9.86
2018-09-24T19:51:04.021Z,9.89
2018-09-24T19:53:38.468Z,9.88
2018-09-24T19:56:12.331Z,9.86
2018-09-24T19:58:47.071Z,9.88
2018-09-24T20:01:20.914Z,9.85
2018-09-24T20:03:54.693Z,9.92
2018-09-24T20:06:28.483Z,9.94
2018-09-24T20:09:02.230Z,9.94
2018-09-24T20:11:36.125Z,9.98
2018-09-24T20:14:10.078Z,9.92
2018-09-24T20:16:43.978Z,9.90
2018-09-24T20:19:17.763Z,9.88
2018-09-24T20:21:51.485Z,9.84
2018-09-24T20:24:25.371Z,9.62
2018-09-24T20:26:59.164Z,9.69
2018-09-24T20:29:32.969Z,9.52
2018-09-24T20:32:06.547Z,9.45
2018-09-24T20:34:40.665Z,9.40
2018-09-24T20:37:14.333Z,9.32
2018-09-24T20:39:48.183Z,9.36
2018-09-24T20:42:21.870Z,9.32
2018-09-24T20:44:55.692Z,9.28
2018-09-24T20:47:29.608Z,9.33
2018-09-24T20:50:03.225Z,9.37
2018-09-24T20:52:36.994Z,9.38
2018-09-24T20:55:13.128Z,9.24
2018-09-24T20:57:46.846Z,9.40
2018-09-24T21:00:20.787Z,9.42
2018-09-24T21:02:54.433Z,9.34
2018-09-24T21:05:28.204Z,9.31
2018-09-24T21:08:02.111Z,9.43
2018-09-24T21:10:35.830Z,9.45
2018-09-24T21:13:09.647Z,9.56
2018-09-24T21:15:43.421Z,9.57
2018-09-24T21:18:17.199Z,9.55
2018-09-24T21:20:50.949Z,9.54
2018-09-24T21:23:24.568Z,9.48
2018-09-24T21:25:58.387Z,9.44
2018-09-24T21:28:32.071Z,9.41
2018-09-24T21:31:05.908Z,9.40
2018-09-24T21:33:40.061Z,9.40
2018-09-24T21:36:13.806Z,9.37
2018-09-24T21:38:48.570Z,9.37
2018-09-24T21:41:22.504Z,9.43
2018-09-24T21:43:56.426Z,9.43
2018-09-24T21:46:30.263Z,9.46
2018-09-24T21:49:04.011Z,9.51
2018-09-24T21:51:37.881Z,9.58
2018-09-24T21:54:11.733Z,9.62
2018-09-24T21:56:45.566Z,9.73
2018-09-24T21:59:19.360Z,9.73
2018-09-24T22:01:53.025Z,9.82
2018-09-24T22:04:26.710Z,9.93
2018-09-24T22:07:00.436Z,9.91
2018-09-24T22:09:34.172Z,9.90
2018-09-24T22:12:08.031Z,9.93
2018-09-24T22:14:41.937Z,9.91
2018-09-24T22:17:15.786Z,9.91
2018-09-24T22:19:49.707Z,9.81
2018-09-24T22:22:23.459Z,9.80
2018-09-24T22:24:57.349Z,9.76
2018-09-24T22:27:31.192Z,9.63
2018-09-24T22:30:04.996Z,9.50
2018-09-24T22:32:38.726Z,9.45
2018-09-24T22:35:12.550Z,9.35
2018-09-24T22:37:46.336Z,9.29
2018-09-24T22:40:20.045Z,9.21
2018-09-24T22:42:53.853Z,9.21
2018-09-24T22:45:27.729Z,9.20
2018-09-24T22:48:02.493Z,9.07
2018-09-24T22:50:36.281Z,9.06
2018-09-24T22:53:10.023Z,9.00
2018-09-24T22:55:43.861Z,8.98
2018-09-24T22:58:17.855Z,8.86
2018-09-24T23:00:51.661Z,8.64
2018-09-24T23:03:26.240Z,8.72
2018-09-24T23:06:00.789Z,8.69
2018-09-24T23:08:34.803Z,8.75
2018-09-24T23:11:08.673Z,8.86
2018-09-24T23:13:42.449Z,8.93
2018-09-24T23:16:17.066Z,8.95
2018-09-24T23:18:50.853Z,9.00
2018-09-24T23:21:24.669Z,8.99
2018-09-24T23:23:58.927Z,8.98
2018-09-24T23:26:32.961Z,8.89
2018-09-24T23:29:06.819Z,8.94
2018-09-24T23:31:40.730Z,8.83
2018-09-24T23:34:14.448Z,8.66
2018-09-24T23:36:49.064Z,8.63
2018-09-24T23:39:22.958Z,8.66
2018-09-24T23:41:57.447Z,8.70
2018-09-24T23:44:31.511Z,8.63
2018-09-24T23:47:05.201Z,8.54
2018-09-24T23:49:39.180Z,8.41
2018-09-24T23:52:12.997Z,8.43
2018-09-24T23:54:46.845Z,8.34
2018-09-24T23:57:20.737Z,8.09
2018-09-24T23:59:54.569Z,7.88
